createdAt,value
2022-11-16T00:02:14.709Z,76.46
2022-11-16T00:04:44.125Z,76.64
2022-11-16T00:07:13.328Z,76.66
2022-11-16T00:09:42.451Z,76.45
2022-11-16T00:12:13.104Z,76.57
2022-11-16T00:14:42.157Z,76.50
2022-11-16T00:17:10.964Z,76.48
2022-11-16T00:19:40.042Z,76.52
2022-11-16T00:22:09.194Z,76.32
2022-11-16T00:24:38.287Z,76.44
2022-11-16T00:27:07.060Z,76.40
2022-11-16T00:29:36.348Z,76.59
2022-11-16T00:32:05.286Z,76.80
2022-11-16T00:34:34.415Z,76.76
2022-11-16T00:37:03.333Z,76.84
2022-11-16T00:39:32.390Z,76.95
2022-11-16T00:42:01.475Z,76.83
2022-11-16T00:44:30.608Z,76.69
2022-11-16T00:46:59.755Z,76.54
2022-11-16T00:49:29.123Z,76.48
2022-11-16T00:51:58.272Z,76.45
2022-11-16T00:54:27.025Z,76.22
2022-11-16T00:56:56.646Z,76.36
2022-11-16T00:59:25.932Z,76.57
2022-11-16T01:01:58.789Z,76.58
2022-11-16T01:04:28.027Z,76.59
2022-11-16T01:06:57.032Z,76.63
2022-11-16T01:09:27.548Z,76.56
2022-11-16T01:12:12.898Z,76.65
2022-11-16T01:14:45.263Z,76.71
2022-11-16T01:17:15.396Z,76.83
2022-11-16T01:19:44.419Z,76.81
2022-11-16T01:22:13.399Z,76.82
2022-11-16T01:24:43.071Z,77.03
2022-11-16T01:27:11.967Z,77.19
2022-11-16T01:29:44.607Z,76.99
2022-11-16T01:32:13.448Z,77.20
2022-11-16T01:34:43.031Z,77.31
2022-11-16T01:37:25.962Z,77.24
2022-11-16T01:39:55.412Z,77.16
2022-11-16T01:42:28.257Z,77.21
2022-11-16T01:45:16.653Z,77.34
2022-11-16T01:47:46.832Z,77.41
2022-11-16T01:50:19.511Z,77.60
2022-11-16T01:53:00.355Z,77.63
2022-11-16T01:55:36.458Z,77.60
2022-11-16T01:58:28.680Z,77.64
2022-11-16T02:01:02.744Z,77.79
2022-11-16T02:03:40.324Z,78.00
2022-11-16T02:06:16.837Z,78.05
2022-11-16T02:09:16.164Z,78.03
2022-11-16T02:12:25.582Z,77.80
2022-11-16T02:15:08.648Z,77.73
2022-11-16T02:17:52.304Z,77.94
2022-11-16T02:20:57.092Z,78.01
2022-11-16T02:23:47.910Z,77.96
2022-11-16T02:26:23.345Z,77.85
2022-11-16T02:29:37.190Z,77.93
2022-11-16T02:32:24.624Z,77.77
2022-11-16T02:34:56.820Z,77.49
2022-11-16T02:37:30.933Z,77.43
2022-11-16T02:40:03.543Z,77.40
2022-11-16T02:42:40.749Z,77.59
2022-11-16T02:45:12.780Z,77.82
2022-11-16T02:47:43.672Z,77.80
2022-11-16T02:50:19.086Z,77.86
2022-11-16T02:52:48.420Z,78.14
2022-11-16T02:55:17.605Z,77.96
2022-11-16T02:57:58.999Z,77.98
2022-11-16T03:00:43.853Z,78.02
2022-11-16T03:03:30.714Z,78.00
2022-11-16T03:06:09.052Z,77.94
2022-11-16T03:08:45.713Z,78.09
2022-11-16T03:11:33.803Z,78.14
2022-11-16T03:14:06.892Z,78.38
2022-11-16T03:16:41.243Z,78.50
2022-11-16T03:19:14.833Z,78.14
2022-11-16T03:21:55.600Z,78.00
2022-11-16T03:24:26.133Z,78.03
2022-11-16T03:27:00.500Z,77.90
2022-11-16T03:29:34.662Z,77.96
2022-11-16T03:32:22.694Z,78.09
2022-11-16T03:35:04.831Z,78.40
2022-11-16T03:37:35.877Z,78.44
2022-11-16T03:40:06.579Z,78.58
2022-11-16T03:42:36.967Z,78.62
2022-11-16T03:45:06.099Z,78.65
2022-11-16T03:47:34.629Z,78.62
2022-11-16T03:50:05.547Z,78.53
2022-11-16T03:52:35.310Z,78.28
2022-11-16T03:55:05.499Z,78.48
2022-11-16T03:57:35.950Z,78.71
2022-11-16T04:00:06.925Z,78.74
2022-11-16T04:02:42.151Z,78.75
2022-11-16T04:05:33.232Z,78.51
2022-11-16T04:08:20.978Z,78.55
2022-11-16T04:11:08.851Z,78.53
2022-11-16T04:13:57.132Z,78.75
2022-11-16T04:16:44.978Z,78.79
2022-11-16T04:19:32.868Z,78.63
2022-11-16T04:22:43.434Z,78.90
2022-11-16T04:25:20.069Z,78.74
2022-11-16T04:28:08.752Z,78.81
2022-11-16T04:31:25.982Z,78.94
2022-11-16T04:34:34.209Z,78.97
2022-11-16T04:37:22.803Z,78.83
2022-11-16T04:39:51.466Z,78.95
2022-11-16T04:42:22.638Z,78.95
2022-11-16T04:45:11.704Z,78.73
2022-11-16T04:47:49.469Z,78.96
2022-11-16T04:50:19.802Z,79.14
2022-11-16T04:52:49.697Z,79.12
2022-11-16T04:55:18.534Z,79.25
2022-11-16T04:57:47.885Z,79.38
2022-11-16T05:00:17.413Z,79.30
2022-11-16T05:02:46.199Z,79.14
2022-11-16T05:05:15.403Z,79.08
2022-11-16T05:07:45.230Z,79.23
2022-11-16T05:10:19.604Z,79.21
2022-11-16T05:12:48.196Z,79.36
2022-11-16T05:15:20.032Z,79.26
2022-11-16T05:17:51.490Z,79.33
2022-11-16T05:20:41.530Z,79.34
2022-11-16T05:23:30.879Z,79.42
2022-11-16T05:26:02.732Z,79.51
2022-11-16T05:28:32.239Z,79.48
2022-11-16T05:31:00.930Z,79.46
2022-11-16T05:33:30.466Z,79.52
2022-11-16T05:35:59.671Z,79.50
2022-11-16T05:38:28.207Z,79.54
2022-11-16T05:40:58.465Z,79.58
2022-11-16T05:43:27.748Z,79.74
2022-11-16T05:46:03.107Z,79.57
2022-11-16T05:48:32.363Z,79.57
2022-11-16T05:51:01.836Z,79.68
2022-11-16T05:53:33.080Z,79.76
2022-11-16T05:56:01.803Z,79.81
2022-11-16T05:58:31.046Z,79.77
2022-11-16T06:01:01.759Z,79.67
2022-11-16T06:03:30.982Z,79.90
2022-11-16T06:06:00.011Z,80.06
2022-11-16T06:08:30.566Z,80.01
2022-11-16T06:11:05.699Z,79.92
2022-11-16T06:13:35.063Z,79.99
2022-11-16T06:16:04.049Z,80.05
2022-11-16T06:18:33.297Z,80.03
2022-11-16T06:21:03.242Z,79.98
2022-11-16T06:23:32.743Z,80.23
2022-11-16T06:26:02.090Z,80.16
2022-11-16T06:28:32.869Z,80.37
2022-11-16T06:31:02.190Z,80.36
2022-11-16T06:33:33.807Z,80.62
2022-11-16T06:36:05.003Z,80.75
2022-11-16T06:38:34.045Z,80.71
2022-11-16T06:41:03.729Z,80.76
2022-11-16T06:43:33.405Z,80.68
2022-11-16T06:46:01.948Z,80.59
2022-11-16T06:48:31.356Z,80.70
2022-11-16T06:51:00.612Z,80.98
2022-11-16T06:53:30.934Z,80.81
2022-11-16T06:56:06.565Z,80.87
2022-11-16T06:58:42.709Z,81.21
2022-11-16T07:01:12.916Z,81.28
2022-11-16T07:03:43.076Z,81.44
2022-11-16T07:06:13.814Z,81.40
2022-11-16T07:08:44.562Z,81.26
2022-11-16T07:11:13.522Z,81.08
2022-11-16T07:13:42.227Z,81.30
2022-11-16T07:16:12.764Z,81.18
2022-11-16T07:18:46.373Z,81.20
2022-11-16T07:21:17.124Z,81.22
2022-11-16T07:23:46.203Z,81.23
2022-11-16T07:26:19.216Z,81.48
2022-11-16T07:29:11.099Z,81.39
2022-11-16T07:31:43.234Z,81.33
2022-11-16T07:34:28.000Z,81.32
2022-11-16T07:37:07.476Z,81.25
2022-11-16T07:39:36.225Z,81.21
2022-11-16T07:42:11.893Z,81.43
2022-11-16T07:45:07.715Z,81.49
2022-11-16T07:47:40.680Z,81.46
2022-11-16T07:50:12.393Z,81.37
2022-11-16T07:52:40.987Z,81.57
2022-11-16T07:55:18.283Z,81.37
2022-11-16T07:57:52.960Z,81.55
2022-11-16T08:00:25.068Z,81.78
2022-11-16T08:02:58.886Z,81.75
2022-11-16T08:05:28.276Z,81.69
2022-11-16T08:07:56.818Z,81.62
2022-11-16T08:10:26.450Z,81.61
2022-11-16T08:12:56.304Z,81.60
2022-11-16T08:15:25.994Z,81.59
2022-11-16T08:17:54.873Z,81.71
2022-11-16T08:20:23.842Z,81.73
2022-11-16T08:22:53.266Z,81.55
2022-11-16T08:25:21.814Z,81.61
2022-11-16T08:27:51.056Z,81.62
2022-11-16T08:30:20.623Z,81.69
2022-11-16T08:32:50.068Z,81.78
2022-11-16T08:35:19.594Z,81.73
2022-11-16T08:37:49.413Z,81.74
2022-11-16T08:40:18.151Z,81.85
2022-11-16T08:42:47.141Z,81.86
2022-11-16T08:45:18.083Z,81.90
2022-11-16T08:47:47.132Z,81.89
2022-11-16T08:50:17.689Z,81.93
2022-11-16T08:52:46.720Z,82.04
2022-11-16T08:59:05.066Z,82.14
2022-11-16T09:01:39.923Z,82.19
2022-11-16T09:04:08.619Z,82.43
2022-11-16T09:06:37.298Z,82.23
2022-11-16T09:09:06.138Z,82.45
2022-11-16T09:11:34.769Z,82.44
2022-11-16T09:14:03.526Z,82.41
2022-11-16T09:16:32.286Z,82.52
2022-11-16T09:19:01.538Z,82.35
2022-11-16T09:21:31.158Z,82.64
2022-11-16T09:24:00.048Z,82.71
2022-11-16T09:26:28.899Z,82.70
2022-11-16T09:29:00.048Z,82.95
2022-11-16T09:31:31.976Z,82.81
2022-11-16T09:34:00.820Z,82.90
2022-11-16T09:36:30.223Z,82.86
2022-11-16T09:39:41.966Z,82.73
2022-11-16T09:42:14.140Z,82.84
2022-11-16T09:45:12.188Z,83.05
2022-11-16T09:47:59.682Z,82.86
2022-11-16T09:50:47.869Z,83.01
2022-11-16T09:53:38.543Z,83.07
2022-11-16T09:56:28.992Z,83.05
2022-11-16T09:59:15.029Z,83.18
2022-11-16T10:01:58.952Z,83.19
2022-11-16T10:04:58.787Z,83.37
2022-11-16T10:07:37.711Z,83.36
2022-11-16T10:10:08.937Z,83.37
2022-11-16T10:12:52.392Z,83.42
2022-11-16T10:16:00.645Z,83.37
2022-11-16T10:18:49.131Z,83.54
2022-11-16T10:21:33.362Z,83.50
2022-11-16T10:24:43.650Z,83.51
2022-11-16T10:27:21.959Z,83.50
2022-11-16T10:30:09.706Z,83.34
2022-11-16T10:32:50.721Z,83.47
2022-11-16T10:35:43.327Z,83.54
2022-11-16T10:38:15.436Z,83.37
2022-11-16T10:40:50.235Z,83.44
2022-11-16T10:43:23.844Z,83.34
2022-11-16T10:46:14.592Z,83.39
2022-11-16T10:49:04.784Z,83.45
2022-11-16T10:51:33.737Z,83.63
2022-11-16T10:54:03.577Z,83.51
2022-11-16T10:56:37.989Z,83.62
2022-11-16T10:59:10.528Z,83.59
2022-11-16T11:01:48.014Z,83.66
2022-11-16T11:04:26.014Z,83.67
2022-11-16T11:06:58.544Z,83.56
2022-11-16T11:09:30.856Z,83.52
2022-11-16T11:12:37.016Z,83.91
2022-11-16T11:15:11.900Z,83.78
2022-11-16T11:17:43.604Z,83.78
2022-11-16T11:20:15.492Z,83.54
2022-11-16T11:22:52.567Z,83.74
2022-11-16T11:25:39.164Z,83.67
2022-11-16T11:28:17.390Z,83.60
2022-11-16T11:31:05.326Z,83.64
2022-11-16T11:33:42.803Z,83.58
2022-11-16T11:36:21.930Z,83.63
2022-11-16T11:39:06.612Z,83.76
2022-11-16T11:41:40.619Z,83.75
2022-11-16T11:44:18.483Z,83.72
2022-11-16T11:47:50.492Z,83.74
2022-11-16T11:50:02.230Z,83.98
2022-11-16T11:52:42.721Z,83.87
2022-11-16T11:55:17.238Z,83.91
2022-11-16T11:57:50.320Z,83.95
2022-11-16T12:00:19.276Z,83.93
2022-11-16T12:03:15.708Z,84.00
2022-11-16T12:05:57.930Z,83.99
2022-11-16T12:08:57.530Z,83.90
2022-11-16T12:11:46.038Z,83.89
2022-11-16T12:14:33.562Z,83.99
2022-11-16T12:17:23.564Z,83.87
2022-11-16T12:20:03.697Z,83.94
2022-11-16T12:22:35.022Z,84.21
2022-11-16T12:25:25.767Z,84.24
2022-11-16T12:28:04.541Z,84.18
2022-11-16T12:30:39.277Z,84.00
2022-11-16T12:33:30.243Z,83.95
2022-11-16T12:36:08.668Z,83.87
2022-11-16T12:39:07.107Z,83.93
2022-11-16T12:41:42.815Z,84.01
2022-11-16T12:44:15.035Z,84.11
2022-11-16T12:47:08.559Z,83.97
2022-11-16T12:49:49.753Z,84.15
2022-11-16T12:52:18.684Z,84.07
2022-11-16T12:55:26.419Z,84.07
2022-11-16T12:58:14.742Z,83.97
2022-11-16T13:01:10.510Z,83.96
2022-11-16T13:03:49.346Z,84.10
2022-11-16T13:06:30.156Z,84.02
2022-11-16T13:09:10.962Z,84.17
2022-11-16T13:11:47.535Z,84.18
2022-11-16T13:14:25.428Z,84.16
2022-11-16T13:16:55.074Z,84.32
2022-11-16T13:19:28.952Z,84.12
2022-11-16T13:22:29.247Z,84.12
2022-11-16T13:25:27.749Z,84.08
2022-11-16T13:28:16.944Z,84.17
2022-11-16T13:31:02.117Z,84.15
2022-11-16T13:33:47.761Z,84.35
2022-11-16T13:36:39.670Z,84.31
2022-11-16T13:39:08.833Z,84.23
2022-11-16T13:41:39.754Z,84.21
2022-11-16T13:44:21.013Z,84.25
2022-11-16T13:47:27.909Z,84.23
2022-11-16T13:50:00.005Z,84.29
2022-11-16T13:53:36.505Z,84.31
2022-11-16T13:55:43.425Z,84.20
2022-11-16T13:58:21.731Z,84.23
2022-11-16T14:01:11.350Z,84.27
2022-11-16T14:03:42.534Z,84.50
2022-11-16T14:06:22.835Z,84.36
2022-11-16T14:09:01.487Z,84.34
2022-11-16T14:11:40.145Z,84.37
2022-11-16T14:14:33.587Z,84.49
2022-11-16T14:17:02.321Z,84.60
2022-11-16T14:19:44.651Z,84.50
2022-11-16T14:22:42.617Z,84.82
2022-11-16T14:25:42.244Z,84.80
2022-11-16T14:28:25.827Z,84.71
2022-11-16T14:31:15.854Z,84.86
2022-11-16T14:33:51.573Z,84.78
2022-11-16T14:36:37.832Z,85.18
2022-11-16T14:39:16.091Z,84.92
2022-11-16T14:41:46.771Z,85.23
2022-11-16T14:44:22.162Z,85.30
2022-11-16T14:46:51.860Z,85.22
2022-11-16T14:49:21.939Z,85.24
2022-11-16T14:51:59.964Z,85.27
2022-11-16T14:54:43.008Z,85.28
2022-11-16T14:57:40.379Z,85.13
2022-11-16T15:00:25.221Z,85.54
2022-11-16T15:03:02.102Z,85.27
2022-11-16T15:05:37.085Z,85.51
2022-11-16T15:08:18.234Z,85.65
2022-11-16T15:10:52.429Z,85.62
2022-11-16T15:13:24.233Z,85.66
2022-11-16T15:16:17.151Z,85.54
2022-11-16T15:19:02.844Z,85.81
2022-11-16T15:21:31.779Z,85.91
2022-11-16T15:24:29.799Z,85.79
2022-11-16T15:26:49.552Z,86.02
2022-11-16T15:29:20.227Z,85.96
2022-11-16T15:31:51.280Z,85.78
2022-11-16T15:34:21.028Z,86.06
2022-11-16T15:36:50.491Z,86.19
2022-11-16T15:39:22.547Z,86.33
2022-11-16T15:41:52.471Z,86.16
2022-11-16T15:44:23.769Z,86.24
2022-11-16T15:46:55.933Z,86.55
2022-11-16T15:49:38.817Z,86.50
2022-11-16T15:52:07.668Z,86.48
2022-11-16T15:54:55.612Z,86.40
2022-11-16T15:57:31.241Z,86.54
2022-11-16T16:00:05.505Z,86.35
2022-11-16T16:02:35.890Z,86.67
2022-11-16T16:05:07.317Z,86.52
2022-11-16T16:07:41.979Z,86.46
2022-11-16T16:10:20.464Z,86.37
2022-11-16T16:13:02.214Z,86.33
2022-11-16T16:15:37.032Z,86.39
2022-11-16T16:18:34.917Z,86.42
2022-11-16T16:21:03.818Z,86.46
2022-11-16T16:23:35.313Z,86.31
2022-11-16T16:26:05.793Z,86.47
2022-11-16T16:28:36.938Z,86.54
2022-11-16T16:31:08.232Z,86.52
2022-11-16T16:33:37.895Z,86.51
2022-11-16T16:36:07.995Z,86.78
2022-11-16T16:38:38.821Z,86.73
2022-11-16T16:41:07.974Z,86.90
2022-11-16T16:43:39.010Z,86.81
2022-11-16T16:46:12.252Z,86.80
2022-11-16T16:48:44.666Z,86.98
2022-11-16T16:51:14.076Z,86.90
2022-11-16T16:53:43.929Z,86.87
2022-11-16T16:56:17.176Z,86.70
2022-11-16T16:58:46.510Z,86.71
2022-11-16T17:01:15.469Z,86.94
2022-11-16T17:03:47.320Z,86.87
2022-11-16T17:06:16.187Z,87.13
2022-11-16T17:08:45.108Z,87.02
2022-11-16T17:11:17.610Z,87.02
2022-11-16T17:13:47.081Z,87.27
2022-11-16T17:16:23.872Z,87.04
2022-11-16T17:18:57.545Z,87.08
2022-11-16T17:21:28.015Z,87.26
2022-11-16T17:23:58.978Z,87.16
2022-11-16T17:26:29.744Z,87.07
2022-11-16T17:28:59.019Z,86.99
2022-11-16T17:31:29.936Z,87.20
2022-11-16T17:33:59.164Z,87.14
2022-11-16T17:36:28.995Z,87.08
2022-11-16T17:39:02.493Z,87.12
2022-11-16T17:41:31.683Z,87.10
2022-11-16T17:44:00.764Z,87.19
2022-11-16T17:46:30.710Z,87.45
2022-11-16T17:49:00.163Z,87.75
2022-11-16T17:51:30.588Z,87.44
2022-11-16T17:54:01.587Z,87.53
2022-11-16T17:56:33.080Z,87.63
2022-11-16T17:59:02.215Z,87.42
2022-11-16T18:01:33.562Z,87.65
2022-11-16T18:04:14.907Z,87.79
2022-11-16T18:07:14.323Z,87.92
2022-11-16T18:10:05.264Z,88.05
2022-11-16T18:13:06.024Z,88.12
2022-11-16T18:16:11.945Z,87.83
2022-11-16T18:25:23.776Z,88.08
2022-11-16T18:28:14.935Z,88.13
2022-11-16T18:31:06.995Z,88.06
2022-11-16T18:34:03.126Z,88.08
2022-11-16T18:37:02.195Z,87.96
2022-11-16T18:40:00.411Z,87.95
2022-11-16T18:46:14.499Z,88.09
2022-11-16T18:48:49.205Z,88.04
2022-11-16T18:51:22.250Z,88.08
2022-11-16T18:53:51.662Z,88.24
2022-11-16T18:56:21.497Z,88.28
2022-11-16T18:58:51.999Z,88.30
2022-11-16T19:01:25.677Z,88.45
2022-11-16T19:03:56.336Z,88.28
2022-11-16T19:06:31.386Z,88.09
2022-11-16T19:09:02.415Z,88.37
2022-11-16T19:11:32.654Z,88.24
2022-11-16T19:14:02.177Z,88.49
2022-11-16T19:16:34.355Z,88.40
2022-11-16T19:19:07.288Z,88.52
2022-11-16T19:21:39.292Z,88.45
2022-11-16T19:24:12.688Z,88.41
2022-11-16T19:26:44.706Z,88.47
2022-11-16T19:29:17.023Z,88.62
2022-11-16T19:31:48.555Z,88.33
2022-11-16T19:34:17.817Z,88.68
2022-11-16T19:36:50.961Z,88.58
2022-11-16T19:39:25.405Z,88.77
2022-11-16T19:41:54.685Z,88.90
2022-11-16T19:44:24.466Z,89.20
2022-11-16T19:46:55.201Z,88.93
2022-11-16T19:49:26.325Z,88.88
2022-11-16T19:51:56.802Z,88.74
2022-11-16T19:57:09.333Z,88.97
2022-11-16T19:59:39.153Z,89.01
2022-11-16T20:02:12.022Z,89.14
2022-11-16T20:04:42.698Z,89.08
2022-11-16T20:07:13.712Z,89.21
2022-11-16T20:09:50.544Z,89.27
2022-11-16T20:12:23.940Z,89.16
2022-11-16T20:14:54.913Z,89.17
2022-11-16T20:20:14.005Z,89.00
2022-11-16T20:22:46.212Z,89.09
2022-11-16T20:25:16.392Z,89.26
2022-11-16T20:27:49.750Z,88.99
2022-11-16T20:30:18.958Z,88.98
2022-11-16T20:32:47.907Z,88.90
2022-11-16T20:35:20.049Z,88.89
2022-11-16T20:37:49.507Z,89.02
2022-11-16T20:40:18.245Z,89.07
2022-11-16T20:42:50.259Z,89.21
2022-11-16T20:45:19.426Z,89.32
2022-11-16T20:47:50.559Z,89.28
2022-11-16T20:50:25.186Z,89.28
2022-11-16T20:52:54.549Z,89.37
2022-11-16T20:55:24.901Z,89.49
2022-11-16T20:57:57.225Z,89.35
2022-11-16T21:00:26.069Z,89.51
2022-11-16T21:02:58.343Z,89.49
2022-11-16T21:05:27.605Z,89.25
2022-11-16T21:08:02.845Z,89.36
2022-11-16T21:10:41.075Z,89.31
2022-11-16T21:13:37.501Z,89.53
2022-11-16T21:16:15.168Z,89.51
2022-11-16T21:18:48.210Z,89.39
2022-11-16T21:21:21.835Z,89.46
2022-11-16T21:23:54.611Z,89.68
2022-11-16T21:29:22.481Z,89.66
2022-11-16T21:31:51.436Z,89.63
2022-11-16T21:34:21.651Z,89.51
2022-11-16T21:36:52.902Z,89.61
2022-11-16T21:39:22.106Z,89.45
2022-11-16T21:41:51.263Z,89.52
2022-11-16T21:44:21.528Z,89.79
2022-11-16T21:46:53.057Z,89.85
2022-11-16T21:49:21.991Z,89.78
2022-11-16T21:51:52.603Z,89.68
2022-11-16T21:54:22.572Z,89.86
2022-11-16T21:56:51.419Z,89.79
2022-11-16T21:59:21.281Z,89.60
2022-11-16T22:02:04.540Z,89.52
2022-11-16T22:04:52.282Z,89.56
2022-11-16T22:07:33.448Z,89.68
2022-11-16T22:10:07.347Z,89.54
2022-11-16T22:12:37.267Z,89.43
2022-11-16T22:15:08.097Z,89.35
2022-11-16T22:17:37.350Z,89.40
2022-11-16T22:20:06.830Z,89.55
2022-11-16T22:22:36.113Z,89.55
2022-11-16T22:25:05.170Z,89.49
2022-11-16T22:27:52.129Z,89.45
2022-11-16T22:30:22.787Z,89.57
2022-11-16T22:32:51.762Z,89.47
2022-11-16T22:35:20.369Z,89.42
2022-11-16T22:37:49.392Z,89.69
2022-11-16T22:40:18.353Z,89.92
2022-11-16T22:42:46.915Z,90.11
2022-11-16T22:45:16.103Z,90.15
2022-11-16T22:47:44.972Z,90.04
2022-11-16T22:50:13.583Z,90.01
2022-11-16T22:52:42.292Z,90.12
2022-11-16T22:55:11.320Z,90.05
2022-11-16T22:57:39.777Z,89.94
2022-11-16T23:00:10.399Z,89.77
2022-11-16T23:02:39.242Z,90.21
2022-11-16T23:05:08.271Z,90.07
2022-11-16T23:07:37.165Z,89.98
2022-11-16T23:10:06.803Z,90.00
2022-11-16T23:12:54.814Z,90.02
2022-11-16T23:15:42.957Z,90.01
2022-11-16T23:18:12.317Z,89.95
2022-11-16T23:20:59.735Z,89.92
2022-11-16T23:23:47.407Z,89.88
2022-11-16T23:26:43.233Z,89.84
2022-11-16T23:29:12.546Z,89.75
2022-11-16T23:31:41.583Z,89.87
2022-11-16T23:34:10.103Z,89.74
2022-11-16T23:36:38.983Z,89.89
2022-11-16T23:39:08.821Z,89.77
2022-11-16T23:41:56.466Z,89.75
2022-11-16T23:44:25.635Z,90.07
2022-11-16T23:46:54.310Z,89.95
2022-11-16T23:49:23.334Z,90.28
2022-11-16T23:51:52.230Z,90.12
2022-11-16T23:54:21.139Z,89.95
2022-11-16T23:56:50.026Z,90.04
2022-11-16T23:59:18.883Z,90.07
